createdAt,value
2023-02-15T00:00:41.349Z,101619.44
2023-02-15T00:05:43.111Z,101614.00
2023-02-15T00:10:44.710Z,101613.91
2023-02-15T00:15:46.330Z,101607.97
2023-02-15T00:20:47.926Z,101618.13
2023-02-15T00:25:49.941Z,101618.78
2023-02-15T00:30:51.624Z,101608.50
2023-02-15T00:35:58.260Z,101605.06
2023-02-15T00:41:02.047Z,101605.06
2023-02-15T00:46:05.540Z,101605.50
2023-02-15T00:51:07.190Z,101604.06
2023-02-15T00:56:08.844Z,101602.22
2023-02-15T01:01:18.808Z,101596.19
2023-02-15T01:06:20.632Z,101598.47
2023-02-15T01:11:23.873Z,101592.72
2023-02-15T01:16:30.107Z,101580.94
2023-02-15T01:21:35.244Z,101574.03
2023-02-15T01:26:37.867Z,101572.00
2023-02-15T01:31:40.492Z,101564.31
2023-02-15T01:36:42.138Z,101559.69
2023-02-15T01:41:43.725Z,101557.84
2023-02-15T01:46:53.031Z,101557.28
2023-02-15T01:51:55.178Z,101553.72
2023-02-15T01:57:05.957Z,101554.59
2023-02-15T02:02:10.828Z,101550.91
2023-02-15T02:07:15.509Z,101545.94
2023-02-15T02:12:19.418Z,101540.34
2023-02-15T02:17:33.125Z,101545.19
2023-02-15T02:23:25.929Z,101541.84
2023-02-15T02:28:31.227Z,101536.97
2023-02-15T02:33:41.961Z,101535.81
2023-02-15T02:38:52.639Z,101531.81
2023-02-15T02:44:12.784Z,101530.50
2023-02-15T02:49:14.727Z,101525.41
2023-02-15T02:54:16.708Z,101527.16
2023-02-15T02:59:32.214Z,101516.47
2023-02-15T03:04:39.342Z,101517.13
2023-02-15T03:09:46.665Z,101504.50
2023-02-15T03:14:53.722Z,101511.84
2023-02-15T03:19:58.967Z,101507.50
2023-02-15T03:25:03.348Z,101514.84
2023-02-15T03:30:07.625Z,101510.72
2023-02-15T03:35:10.953Z,101509.91
2023-02-15T03:40:38.949Z,101517.44
2023-02-15T03:45:55.759Z,101518.31
2023-02-15T03:51:21.337Z,101510.44
2023-02-15T03:56:23.099Z,101516.47
2023-02-15T04:01:52.311Z,101519.03
2023-02-15T04:06:53.789Z,101522.69
2023-02-15T04:11:55.383Z,101523.03
2023-02-15T04:16:57.017Z,101521.75
2023-02-15T04:22:17.285Z,101532.03
2023-02-15T04:27:19.062Z,101540.53
2023-02-15T04:32:20.732Z,101534.16
2023-02-15T04:37:22.438Z,101529.34
2023-02-15T04:42:24.069Z,101522.88
2023-02-15T04:47:25.736Z,101523.06
2023-02-15T04:52:27.396Z,101511.66
2023-02-15T04:57:29.020Z,101516.59
2023-02-15T05:02:30.605Z,101528.28
2023-02-15T05:07:32.269Z,101524.91
2023-02-15T05:12:34.120Z,101524.81
2023-02-15T05:17:35.747Z,101526.66
2023-02-15T05:22:37.618Z,101537.75
2023-02-15T05:27:57.771Z,101535.38
2023-02-15T05:32:59.838Z,101538.84
2023-02-15T05:38:01.758Z,101537.13
2023-02-15T05:43:03.496Z,101540.34
2023-02-15T05:48:05.275Z,101539.16
2023-02-15T05:53:07.166Z,101542.31
2023-02-15T05:58:08.911Z,101544.69
2023-02-15T06:03:10.551Z,101542.56
2023-02-15T06:08:12.438Z,101548.16
2023-02-15T06:13:14.093Z,101546.84
2023-02-15T06:18:15.667Z,101552.56
2023-02-15T06:23:18.173Z,101555.50
2023-02-15T06:28:20.211Z,101563.06
2023-02-15T06:33:22.492Z,101568.88
2023-02-15T06:38:24.066Z,101563.06
2023-02-15T06:43:25.906Z,101562.75
2023-02-15T06:48:27.562Z,101558.94
2023-02-15T06:53:29.501Z,101568.00
2023-02-15T06:58:31.135Z,101554.69
2023-02-15T07:03:33.321Z,101549.69
2023-02-15T07:08:36.126Z,101545.44
2023-02-15T07:13:37.790Z,101552.78
2023-02-15T07:18:40.537Z,101540.41
2023-02-15T07:23:42.291Z,101537.38
2023-02-15T07:28:44.031Z,101549.66
2023-02-15T07:33:45.802Z,101544.84
2023-02-15T07:38:48.057Z,101541.56
2023-02-15T07:43:49.677Z,101542.66
2023-02-15T07:48:51.300Z,101547.84
2023-02-15T07:53:52.930Z,101536.75
2023-02-15T07:58:59.068Z,101539.94
2023-02-15T08:04:00.779Z,101536.41
2023-02-15T08:09:06.560Z,101541.75
2023-02-15T08:14:23.106Z,101543.47
2023-02-15T08:19:30.476Z,101541.97
2023-02-15T08:24:40.279Z,101534.97
2023-02-15T08:29:43.383Z,101533.06
2023-02-15T08:34:45.134Z,101536.00
2023-02-15T08:39:46.919Z,101533.88
2023-02-15T08:44:51.433Z,101535.25
2023-02-15T08:49:53.579Z,101527.94
2023-02-15T08:54:56.064Z,101533.66
2023-02-15T08:59:57.943Z,101525.78
2023-02-15T09:04:59.532Z,101520.09
2023-02-15T09:10:01.168Z,101515.53
2023-02-15T09:15:02.837Z,101520.53
2023-02-15T09:20:05.410Z,101523.66
2023-02-15T09:25:07.457Z,101516.75
2023-02-15T09:30:09.773Z,101526.78
2023-02-15T09:35:11.405Z,101524.75
2023-02-15T09:40:16.676Z,101514.75
2023-02-15T09:45:48.960Z,101508.22
2023-02-15T09:51:15.265Z,101497.03
2023-02-15T09:56:47.879Z,101496.84
2023-02-15T10:02:20.742Z,101497.22
2023-02-15T10:07:37.573Z,101490.34
2023-02-15T10:12:41.877Z,101489.56
2023-02-15T10:18:18.462Z,101485.00
2023-02-15T10:23:41.324Z,101477.09
2023-02-15T10:28:53.452Z,101475.34
2023-02-15T10:34:12.916Z,101479.56
2023-02-15T10:39:32.333Z,101454.94
2023-02-15T10:44:45.922Z,101468.72
2023-02-15T10:50:07.879Z,101461.53
2023-02-15T10:55:15.905Z,101446.81
2023-02-15T11:00:32.054Z,101441.22
2023-02-15T11:05:50.190Z,101423.97
2023-02-15T11:10:58.127Z,101425.22
2023-02-15T11:16:21.658Z,101425.72
2023-02-15T11:21:28.632Z,101418.84
2023-02-15T11:26:47.192Z,101401.28
2023-02-15T11:31:58.639Z,101392.81
2023-02-15T11:37:06.410Z,101393.91
2023-02-15T11:42:15.151Z,101400.41
2023-02-15T11:47:16.823Z,101402.63
2023-02-15T11:52:19.698Z,101402.44
2023-02-15T11:57:45.013Z,101383.91
2023-02-15T12:02:53.532Z,101394.53
2023-02-15T12:08:05.126Z,101374.75
2023-02-15T12:13:19.554Z,101368.31
2023-02-15T12:18:38.933Z,101367.16
2023-02-15T12:23:52.872Z,101359.47
2023-02-15T12:28:58.903Z,101363.63
2023-02-15T12:34:03.725Z,101366.34
2023-02-15T12:39:17.359Z,101362.09
2023-02-15T12:44:26.832Z,101348.16
2023-02-15T12:49:39.377Z,101341.59
2023-02-15T12:54:43.176Z,101342.44
2023-02-15T12:59:54.772Z,101331.00
2023-02-15T13:04:58.629Z,101321.63
2023-02-15T13:10:00.630Z,101316.84
2023-02-15T13:15:04.105Z,101306.63
2023-02-15T13:20:17.380Z,101312.91
2023-02-15T13:25:22.969Z,101314.94
2023-02-15T13:30:32.216Z,101313.63
2023-02-15T13:35:45.613Z,101301.94
2023-02-15T13:41:02.752Z,101298.09
2023-02-15T13:46:10.496Z,101284.94
2023-02-15T13:51:47.201Z,101293.97
2023-02-15T13:57:07.233Z,101300.47
2023-02-15T14:02:40.026Z,101298.41
2023-02-15T14:08:09.865Z,101302.47
2023-02-15T14:13:39.790Z,101292.81
2023-02-15T14:18:52.096Z,101290.53
2023-02-15T14:23:56.715Z,101289.81
2023-02-15T14:29:17.430Z,101275.81
2023-02-15T14:34:26.632Z,101272.63
2023-02-15T14:40:02.696Z,101274.94
2023-02-15T14:45:18.073Z,101257.03
2023-02-15T14:50:32.212Z,101264.19
2023-02-15T14:55:37.877Z,101262.22
2023-02-15T15:00:41.610Z,101258.31
2023-02-15T15:05:55.249Z,101252.41
2023-02-15T15:10:57.293Z,101250.56
2023-02-15T15:16:48.686Z,101241.13
2023-02-15T15:21:50.249Z,101242.63
2023-02-15T15:27:30.114Z,101237.28
2023-02-15T15:32:35.588Z,101231.41
2023-02-15T15:38:01.550Z,101226.63
2023-02-15T15:43:03.104Z,101221.44
2023-02-15T15:48:31.534Z,101223.16
2023-02-15T15:53:42.314Z,101222.91
2023-02-15T15:58:47.912Z,101218.97
2023-02-15T16:03:52.063Z,101220.63
2023-02-15T16:08:53.727Z,101221.84
2023-02-15T16:13:55.962Z,101208.22
2023-02-15T16:19:00.936Z,101219.22
2023-02-15T16:24:14.876Z,101215.97
2023-02-15T16:29:19.102Z,101220.69
2023-02-15T16:34:20.941Z,101222.72
2023-02-15T16:39:22.767Z,101224.84
2023-02-15T16:44:24.644Z,101232.84
2023-02-15T16:49:28.680Z,101235.66
2023-02-15T16:54:32.408Z,101222.28
2023-02-15T16:59:40.661Z,101217.28
2023-02-15T17:04:43.293Z,101217.47
2023-02-15T17:09:56.510Z,101226.38
2023-02-15T17:14:58.697Z,101225.16
2023-02-15T17:20:00.452Z,101215.13
2023-02-15T17:25:05.351Z,101221.72
2023-02-15T17:30:25.206Z,101217.53
2023-02-15T17:35:33.128Z,101222.44
2023-02-15T17:40:36.932Z,101223.28
2023-02-15T17:45:45.685Z,101216.09
2023-02-15T17:50:47.865Z,101215.13
2023-02-15T17:55:49.585Z,101223.41
2023-02-15T18:01:11.553Z,101224.31
2023-02-15T18:06:32.875Z,101225.16
2023-02-15T18:11:37.989Z,101217.00
2023-02-15T18:16:43.402Z,101218.38
2023-02-15T18:21:46.137Z,101230.25
2023-02-15T18:26:48.686Z,101228.88
2023-02-15T18:31:55.715Z,101226.75
2023-02-15T18:37:02.320Z,101223.56
2023-02-15T18:42:05.149Z,101218.06
2023-02-15T18:47:06.716Z,101216.88
2023-02-15T18:52:16.683Z,101217.13
2023-02-15T18:57:18.397Z,101208.28
2023-02-15T19:02:20.594Z,101218.22
2023-02-15T19:07:27.901Z,101216.84
2023-02-15T19:12:29.693Z,101212.41
2023-02-15T19:17:31.366Z,101205.94
2023-02-15T19:22:34.884Z,101215.66
2023-02-15T19:27:37.009Z,101214.78
2023-02-15T19:32:38.763Z,101213.69
2023-02-15T19:37:43.947Z,101219.94
2023-02-15T19:42:45.653Z,101221.84
2023-02-15T19:47:51.846Z,101225.38
2023-02-15T19:52:53.921Z,101207.19
2023-02-15T19:57:57.911Z,101207.59
2023-02-15T20:03:01.073Z,101213.94
2023-02-15T20:08:04.261Z,101225.09
2023-02-15T20:13:06.125Z,101218.97
2023-02-15T20:18:08.745Z,101212.69
2023-02-15T20:23:18.761Z,101216.00
2023-02-15T20:28:23.679Z,101223.03
2023-02-15T20:33:25.530Z,101222.69
2023-02-15T20:38:30.185Z,101222.25
2023-02-15T20:43:33.178Z,101213.69
2023-02-15T20:48:35.560Z,101210.25
2023-02-15T20:53:37.320Z,101198.06
2023-02-15T20:58:39.238Z,101191.78
2023-02-15T21:03:41.108Z,101193.72
2023-02-15T21:08:42.898Z,101181.97
2023-02-15T21:13:45.080Z,101193.13
2023-02-15T21:18:46.920Z,101178.47
2023-02-15T21:23:48.929Z,101189.03
2023-02-15T21:28:51.526Z,101193.25
2023-02-15T21:33:53.435Z,101195.88
2023-02-15T21:38:55.068Z,101189.28
2023-02-15T21:44:15.248Z,101190.56
2023-02-15T21:49:16.893Z,101189.59
2023-02-15T21:54:20.027Z,101192.22
2023-02-15T21:59:21.591Z,101184.56
2023-02-15T22:04:29.950Z,101192.38
2023-02-15T22:09:31.591Z,101184.97
2023-02-15T22:14:39.097Z,101196.69
2023-02-15T22:19:40.932Z,101194.06
2023-02-15T22:24:43.343Z,101180.28
2023-02-15T22:29:44.941Z,101180.53
2023-02-15T22:34:46.888Z,101183.50
2023-02-15T22:39:49.015Z,101184.13
2023-02-15T22:44:54.152Z,101194.88
2023-02-15T22:49:55.909Z,101203.00
2023-02-15T22:54:57.481Z,101197.34
2023-02-15T23:00:00.631Z,101205.41
2023-02-15T23:05:02.584Z,101213.91
2023-02-15T23:10:04.553Z,101213.59
2023-02-15T23:15:11.484Z,101206.50
2023-02-15T23:20:16.973Z,101202.81
2023-02-15T23:25:21.819Z,101204.81
2023-02-15T23:30:23.731Z,101193.69
2023-02-15T23:35:25.370Z,101186.28
2023-02-15T23:40:45.533Z,101183.34
2023-02-15T23:45:47.321Z,101186.31
2023-02-15T23:50:48.950Z,101177.69
2023-02-15T23:55:50.627Z,101167.22
